sensor_id;sensor_type;location;lat;lon;timestamp;P1;durP1;ratioP1;P2;durP2;ratioP2
36351;SDS011;22382;44.768;17.206;2022-12-11T00:00:48;1.58;;;0.85;;
36351;SDS011;22382;44.768;17.206;2022-12-11T00:03:15;1.67;;;0.68;;
36351;SDS011;22382;44.768;17.206;2022-12-11T00:05:44;1.20;;;0.70;;
36351;SDS011;22382;44.768;17.206;2022-12-11T00:08:11;1.48;;;0.60;;
36351;SDS011;22382;44.768;17.206;2022-12-11T00:10:45;1.38;;;0.80;;
36351;SDS011;22382;44.768;17.206;2022-12-11T00:13:14;1.73;;;1.08;;
36351;SDS011;22382;44.768;17.206;2022-12-11T00:15:41;2.45;;;0.93;;
36351;SDS011;22382;44.768;17.206;2022-12-11T00:18:10;1.10;;;0.85;;
36351;SDS011;22382;44.768;17.206;2022-12-11T00:20:39;1.90;;;0.75;;
36351;SDS011;22382;44.768;17.206;2022-12-11T00:23:06;1.75;;;0.80;;
36351;SDS011;22382;44.768;17.206;2022-12-11T00:25:33;1.38;;;0.80;;
36351;SDS011;22382;44.768;17.206;2022-12-11T00:28:00;1.65;;;0.85;;
36351;SDS011;22382;44.768;17.206;2022-12-11T00:30:27;1.45;;;0.73;;
36351;SDS011;22382;44.768;17.206;2022-12-11T00:32:54;1.42;;;0.70;;
36351;SDS011;22382;44.768;17.206;2022-12-11T00:35:20;0.90;;;0.60;;
36351;SDS011;22382;44.768;17.206;2022-12-11T00:37:47;1.58;;;0.85;;
36351;SDS011;22382;44.768;17.206;2022-12-11T00:40:14;1.08;;;0.80;;
36351;SDS011;22382;44.768;17.206;2022-12-11T00:42:41;0.70;;;0.50;;
36351;SDS011;22382;44.768;17.206;2022-12-11T00:45:08;1.50;;;0.85;;
36351;SDS011;22382;44.768;17.206;2022-12-11T00:47:36;2.17;;;0.80;;
36351;SDS011;22382;44.768;17.206;2022-12-11T00:50:03;0.88;;;0.70;;
36351;SDS011;22382;44.768;17.206;2022-12-11T00:52:30;1.23;;;0.85;;
36351;SDS011;22382;44.768;17.206;2022-12-11T00:54:57;2.08;;;1.00;;
36351;SDS011;22382;44.768;17.206;2022-12-11T00:57:24;1.80;;;0.63;;
36351;SDS011;22382;44.768;17.206;2022-12-11T00:59:51;1.42;;;0.90;;
36351;SDS011;22382;44.768;17.206;2022-12-11T01:02:18;1.38;;;0.75;;
36351;SDS011;22382;44.768;17.206;2022-12-11T01:04:45;1.40;;;0.80;;
36351;SDS011;22382;44.768;17.206;2022-12-11T01:07:12;2.05;;;1.20;;
36351;SDS011;22382;44.768;17.206;2022-12-11T01:09:39;1.73;;;1.05;;
36351;SDS011;22382;44.768;17.206;2022-12-11T01:12:24;1.30;;;0.88;;
36351;SDS011;22382;44.768;17.206;2022-12-11T01:14:53;1.00;;;0.60;;
36351;SDS011;22382;44.768;17.206;2022-12-11T01:17:20;1.58;;;0.98;;
36351;SDS011;22382;44.768;17.206;2022-12-11T01:19:47;1.35;;;0.82;;
36351;SDS011;22382;44.768;17.206;2022-12-11T01:22:14;2.30;;;0.98;;
36351;SDS011;22382;44.768;17.206;2022-12-11T01:24:41;2.38;;;1.00;;
36351;SDS011;22382;44.768;17.206;2022-12-11T01:27:08;1.60;;;0.80;;
36351;SDS011;22382;44.768;17.206;2022-12-11T01:29:35;1.00;;;0.70;;
36351;SDS011;22382;44.768;17.206;2022-12-11T01:32:02;1.58;;;0.88;;
36351;SDS011;22382;44.768;17.206;2022-12-11T01:34:30;1.38;;;0.88;;
36351;SDS011;22382;44.768;17.206;2022-12-11T01:36:58;1.35;;;0.90;;
36351;SDS011;22382;44.768;17.206;2022-12-11T01:39:25;1.52;;;1.00;;
36351;SDS011;22382;44.768;17.206;2022-12-11T01:41:55;3.25;;;0.73;;
36351;SDS011;22382;44.768;17.206;2022-12-11T01:46:50;1.85;;;1.00;;
36351;SDS011;22382;44.768;17.206;2022-12-11T01:49:17;2.50;;;0.95;;
36351;SDS011;22382;44.768;17.206;2022-12-11T01:54:18;2.95;;;1.00;;
36351;SDS011;22382;44.768;17.206;2022-12-11T01:56:49;1.20;;;0.80;;
36351;SDS011;22382;44.768;17.206;2022-12-11T01:59:20;1.30;;;0.90;;
36351;SDS011;22382;44.768;17.206;2022-12-11T02:01:53;1.23;;;0.73;;
36351;SDS011;22382;44.768;17.206;2022-12-11T02:04:41;0.80;;;0.70;;
36351;SDS011;22382;44.768;17.206;2022-12-11T02:07:08;1.23;;;0.65;;
36351;SDS011;22382;44.768;17.206;2022-12-11T02:09:36;1.00;;;0.80;;
36351;SDS011;22382;44.768;17.206;2022-12-11T02:17:55;0.90;;;0.65;;
36351;SDS011;22382;44.768;17.206;2022-12-11T02:20:33;1.20;;;0.77;;
36351;SDS011;22382;44.768;17.206;2022-12-11T02:30:54;1.60;;;0.50;;
36351;SDS011;22382;44.768;17.206;2022-12-11T02:33:29;1.83;;;0.70;;
36351;SDS011;22382;44.768;17.206;2022-12-11T02:36:04;0.93;;;0.60;;
36351;SDS011;22382;44.768;17.206;2022-12-11T02:38:34;0.95;;;0.50;;
36351;SDS011;22382;44.768;17.206;2022-12-11T02:41:04;1.02;;;0.60;;
36351;SDS011;22382;44.768;17.206;2022-12-11T02:43:33;1.30;;;0.60;;
36351;SDS011;22382;44.768;17.206;2022-12-11T02:46:03;1.23;;;0.50;;
36351;SDS011;22382;44.768;17.206;2022-12-11T02:48:32;0.93;;;0.60;;
36351;SDS011;22382;44.768;17.206;2022-12-11T02:51:01;1.27;;;0.70;;
36351;SDS011;22382;44.768;17.206;2022-12-11T02:53:31;0.75;;;0.50;;
36351;SDS011;22382;44.768;17.206;2022-12-11T02:56:05;1.23;;;0.50;;
36351;SDS011;22382;44.768;17.206;2022-12-11T02:58:36;1.40;;;0.88;;
36351;SDS011;22382;44.768;17.206;2022-12-11T03:01:09;1.35;;;0.60;;
36351;SDS011;22382;44.768;17.206;2022-12-11T03:03:36;1.00;;;0.52;;
36351;SDS011;22382;44.768;17.206;2022-12-11T03:06:03;1.15;;;0.60;;
36351;SDS011;22382;44.768;17.206;2022-12-11T03:08:31;1.67;;;0.90;;
36351;SDS011;22382;44.768;17.206;2022-12-11T03:10:58;1.52;;;0.80;;
36351;SDS011;22382;44.768;17.206;2022-12-11T03:13:25;1.08;;;0.90;;
36351;SDS011;22382;44.768;17.206;2022-12-11T03:18:40;1.02;;;0.60;;
36351;SDS011;22382;44.768;17.206;2022-12-11T03:21:27;1.35;;;0.95;;
36351;SDS011;22382;44.768;17.206;2022-12-11T03:24:14;1.33;;;0.82;;
36351;SDS011;22382;44.768;17.206;2022-12-11T03:26:57;1.58;;;0.93;;
36351;SDS011;22382;44.768;17.206;2022-12-11T03:29:35;1.85;;;1.00;;
36351;SDS011;22382;44.768;17.206;2022-12-11T03:32:13;1.15;;;0.85;;
36351;SDS011;22382;44.768;17.206;2022-12-11T03:34:50;1.98;;;0.80;;
36351;SDS011;22382;44.768;17.206;2022-12-11T03:37:23;1.55;;;0.93;;
36351;SDS011;22382;44.768;17.206;2022-12-11T03:39:55;1.70;;;0.90;;
36351;SDS011;22382;44.768;17.206;2022-12-11T03:42:26;1.50;;;0.80;;
36351;SDS011;22382;44.768;17.206;2022-12-11T03:44:53;1.88;;;1.00;;
36351;SDS011;22382;44.768;17.206;2022-12-11T03:47:24;1.42;;;1.05;;
36351;SDS011;22382;44.768;17.206;2022-12-11T03:49:53;1.95;;;1.08;;
36351;SDS011;22382;44.768;17.206;2022-12-11T03:52:23;2.35;;;1.40;;
36351;SDS011;22382;44.768;17.206;2022-12-11T03:54:53;2.33;;;1.33;;
36351;SDS011;22382;44.768;17.206;2022-12-11T03:57:24;2.22;;;1.42;;
36351;SDS011;22382;44.768;17.206;2022-12-11T03:59:56;2.03;;;1.37;;
36351;SDS011;22382;44.768;17.206;2022-12-11T04:02:24;2.20;;;1.40;;
36351;SDS011;22382;44.768;17.206;2022-12-11T04:04:51;2.70;;;1.60;;
36351;SDS011;22382;44.768;17.206;2022-12-11T04:07:18;2.65;;;1.63;;
36351;SDS011;22382;44.768;17.206;2022-12-11T04:09:45;2.75;;;1.38;;
36351;SDS011;22382;44.768;17.206;2022-12-11T04:12:12;3.85;;;1.63;;
36351;SDS011;22382;44.768;17.206;2022-12-11T04:14:38;2.92;;;1.85;;
36351;SDS011;22382;44.768;17.206;2022-12-11T04:17:25;2.42;;;1.58;;
36351;SDS011;22382;44.768;17.206;2022-12-11T04:20:10;3.70;;;1.92;;
36351;SDS011;22382;44.768;17.206;2022-12-11T04:22:56;2.92;;;1.60;;
36351;SDS011;22382;44.768;17.206;2022-12-11T04:25:42;3.00;;;1.80;;
36351;SDS011;22382;44.768;17.206;2022-12-11T04:28:09;2.17;;;1.40;;
36351;SDS011;22382;44.768;17.206;2022-12-11T04:30:36;2.80;;;1.63;;
36351;SDS011;22382;44.768;17.206;2022-12-11T04:33:03;3.28;;;1.98;;
36351;SDS011;22382;44.768;17.206;2022-12-11T04:35:30;3.33;;;1.95;;
36351;SDS011;22382;44.768;17.206;2022-12-11T04:37:57;5.65;;;2.75;;
36351;SDS011;22382;44.768;17.206;2022-12-11T04:40:24;3.85;;;2.40;;
36351;SDS011;22382;44.768;17.206;2022-12-11T04:42:51;4.88;;;2.90;;
36351;SDS011;22382;44.768;17.206;2022-12-11T04:45:18;6.40;;;4.25;;
36351;SDS011;22382;44.768;17.206;2022-12-11T04:47:45;7.13;;;4.53;;
36351;SDS011;22382;44.768;17.206;2022-12-11T04:50:13;5.80;;;4.20;;
36351;SDS011;22382;44.768;17.206;2022-12-11T04:52:40;6.80;;;4.82;;
36351;SDS011;22382;44.768;17.206;2022-12-11T04:55:08;5.18;;;3.88;;
36351;SDS011;22382;44.768;17.206;2022-12-11T04:57:36;5.15;;;3.42;;
36351;SDS011;22382;44.768;17.206;2022-12-11T05:00:05;5.18;;;2.90;;
36351;SDS011;22382;44.768;17.206;2022-12-11T05:02:34;3.72;;;2.78;;
36351;SDS011;22382;44.768;17.206;2022-12-11T05:05:05;4.40;;;2.83;;
36351;SDS011;22382;44.768;17.206;2022-12-11T05:07:35;4.25;;;2.65;;
36351;SDS011;22382;44.768;17.206;2022-12-11T05:10:03;4.45;;;2.50;;
36351;SDS011;22382;44.768;17.206;2022-12-11T05:12:31;3.67;;;2.70;;
36351;SDS011;22382;44.768;17.206;2022-12-11T05:14:58;4.85;;;2.95;;
36351;SDS011;22382;44.768;17.206;2022-12-11T05:17:25;4.53;;;2.95;;
36351;SDS011;22382;44.768;17.206;2022-12-11T05:19:52;4.47;;;2.78;;
36351;SDS011;22382;44.768;17.206;2022-12-11T05:22:19;4.82;;;2.65;;
36351;SDS011;22382;44.768;17.206;2022-12-11T05:24:46;3.97;;;2.53;;
36351;SDS011;22382;44.768;17.206;2022-12-11T05:27:13;3.95;;;2.55;;
36351;SDS011;22382;44.768;17.206;2022-12-11T05:29:40;4.80;;;2.75;;
36351;SDS011;22382;44.768;17.206;2022-12-11T05:32:07;5.53;;;3.17;;
36351;SDS011;22382;44.768;17.206;2022-12-11T05:34:34;4.55;;;3.38;;
36351;SDS011;22382;44.768;17.206;2022-12-11T05:37:01;4.38;;;3.22;;
36351;SDS011;22382;44.768;17.206;2022-12-11T05:39:28;3.97;;;2.67;;
36351;SDS011;22382;44.768;17.206;2022-12-11T05:41:55;4.50;;;2.88;;
36351;SDS011;22382;44.768;17.206;2022-12-11T05:44:23;4.03;;;2.63;;
36351;SDS011;22382;44.768;17.206;2022-12-11T05:46:50;4.78;;;2.58;;
36351;SDS011;22382;44.768;17.206;2022-12-11T05:49:17;3.95;;;2.55;;
36351;SDS011;22382;44.768;17.206;2022-12-11T05:51:45;3.38;;;2.35;;
36351;SDS011;22382;44.768;17.206;2022-12-11T05:54:13;5.03;;;3.00;;
36351;SDS011;22382;44.768;17.206;2022-12-11T05:56:40;4.82;;;3.08;;
36351;SDS011;22382;44.768;17.206;2022-12-11T05:59:07;5.32;;;2.85;;
36351;SDS011;22382;44.768;17.206;2022-12-11T06:01:39;4.93;;;2.80;;
36351;SDS011;22382;44.768;17.206;2022-12-11T06:04:08;4.53;;;2.70;;
36351;SDS011;22382;44.768;17.206;2022-12-11T06:06:36;3.88;;;2.67;;
36351;SDS011;22382;44.768;17.206;2022-12-11T06:09:05;4.82;;;3.60;;
36351;SDS011;22382;44.768;17.206;2022-12-11T06:11:33;4.70;;;3.60;;
36351;SDS011;22382;44.768;17.206;2022-12-11T06:14:01;5.80;;;3.55;;
36351;SDS011;22382;44.768;17.206;2022-12-11T06:16:29;5.43;;;3.70;;
36351;SDS011;22382;44.768;17.206;2022-12-11T06:18:57;6.25;;;3.72;;
36351;SDS011;22382;44.768;17.206;2022-12-11T06:21:25;6.60;;;4.53;;
36351;SDS011;22382;44.768;17.206;2022-12-11T06:23:55;5.65;;;3.78;;
36351;SDS011;22382;44.768;17.206;2022-12-11T06:26:24;5.43;;;4.00;;
36351;SDS011;22382;44.768;17.206;2022-12-11T06:28:51;7.57;;;4.45;;
36351;SDS011;22382;44.768;17.206;2022-12-11T06:31:18;7.47;;;4.35;;
36351;SDS011;22382;44.768;17.206;2022-12-11T06:33:46;6.80;;;3.58;;
36351;SDS011;22382;44.768;17.206;2022-12-11T06:36:14;6.05;;;3.70;;
36351;SDS011;22382;44.768;17.206;2022-12-11T06:38:43;5.53;;;3.55;;
36351;SDS011;22382;44.768;17.206;2022-12-11T06:41:11;7.88;;;4.47;;
36351;SDS011;22382;44.768;17.206;2022-12-11T06:43:38;6.32;;;4.00;;
36351;SDS011;22382;44.768;17.206;2022-12-11T06:46:07;9.25;;;5.70;;
36351;SDS011;22382;44.768;17.206;2022-12-11T06:48:36;12.13;;;7.43;;
36351;SDS011;22382;44.768;17.206;2022-12-11T06:51:04;19.63;;;11.50;;
36351;SDS011;22382;44.768;17.206;2022-12-11T06:53:32;28.15;;;17.13;;
36351;SDS011;22382;44.768;17.206;2022-12-11T06:56:03;28.30;;;16.80;;
36351;SDS011;22382;44.768;17.206;2022-12-11T06:58:33;15.50;;;9.40;;
36351;SDS011;22382;44.768;17.206;2022-12-11T07:01:01;19.90;;;12.48;;
36351;SDS011;22382;44.768;17.206;2022-12-11T07:03:29;28.02;;;17.63;;
36351;SDS011;22382;44.768;17.206;2022-12-11T07:06:00;28.27;;;18.45;;
36351;SDS011;22382;44.768;17.206;2022-12-11T07:08:28;22.73;;;13.73;;
36351;SDS011;22382;44.768;17.206;2022-12-11T07:11:00;11.80;;;7.40;;
36351;SDS011;22382;44.768;17.206;2022-12-11T07:13:31;12.25;;;7.20;;
36351;SDS011;22382;44.768;17.206;2022-12-11T07:15:59;16.48;;;8.35;;
36351;SDS011;22382;44.768;17.206;2022-12-11T07:18:27;30.95;;;13.57;;
36351;SDS011;22382;44.768;17.206;2022-12-11T07:20:56;50.38;;;21.25;;
36351;SDS011;22382;44.768;17.206;2022-12-11T07:23:26;32.97;;;14.65;;
36351;SDS011;22382;44.768;17.206;2022-12-11T07:25:54;23.27;;;11.38;;
36351;SDS011;22382;44.768;17.206;2022-12-11T07:28:21;14.48;;;8.00;;
36351;SDS011;22382;44.768;17.206;2022-12-11T07:30:49;15.00;;;7.80;;
36351;SDS011;22382;44.768;17.206;2022-12-11T07:33:16;25.75;;;12.07;;
36351;SDS011;22382;44.768;17.206;2022-12-11T07:35:43;28.35;;;13.77;;
36351;SDS011;22382;44.768;17.206;2022-12-11T07:38:10;19.55;;;9.55;;
36351;SDS011;22382;44.768;17.206;2022-12-11T07:40:37;17.95;;;9.02;;
36351;SDS011;22382;44.768;17.206;2022-12-11T07:43:05;22.65;;;10.95;;
36351;SDS011;22382;44.768;17.206;2022-12-11T07:45:32;25.70;;;12.93;;
36351;SDS011;22382;44.768;17.206;2022-12-11T07:47:59;28.00;;;13.10;;
36351;SDS011;22382;44.768;17.206;2022-12-11T07:50:26;26.70;;;11.73;;
36351;SDS011;22382;44.768;17.206;2022-12-11T07:52:53;25.08;;;11.93;;
36351;SDS011;22382;44.768;17.206;2022-12-11T07:55:20;23.25;;;12.07;;
36351;SDS011;22382;44.768;17.206;2022-12-11T07:57:47;30.75;;;14.50;;
36351;SDS011;22382;44.768;17.206;2022-12-11T08:00:14;23.10;;;12.32;;
36351;SDS011;22382;44.768;17.206;2022-12-11T08:02:42;19.85;;;10.60;;
36351;SDS011;22382;44.768;17.206;2022-12-11T08:05:09;20.73;;;11.23;;
36351;SDS011;22382;44.768;17.206;2022-12-11T08:07:38;22.42;;;11.38;;
36351;SDS011;22382;44.768;17.206;2022-12-11T08:10:05;37.17;;;18.20;;
36351;SDS011;22382;44.768;17.206;2022-12-11T08:12:32;36.70;;;17.95;;
36351;SDS011;22382;44.768;17.206;2022-12-11T08:14:59;25.25;;;13.18;;
36351;SDS011;22382;44.768;17.206;2022-12-11T08:17:26;23.38;;;12.88;;
36351;SDS011;22382;44.768;17.206;2022-12-11T08:19:59;24.13;;;13.80;;
36351;SDS011;22382;44.768;17.206;2022-12-11T08:22:26;20.52;;;11.10;;
36351;SDS011;22382;44.768;17.206;2022-12-11T08:24:52;22.00;;;12.95;;
36351;SDS011;22382;44.768;17.206;2022-12-11T08:27:19;17.17;;;10.45;;
36351;SDS011;22382;44.768;17.206;2022-12-11T08:29:46;14.77;;;8.35;;
36351;SDS011;22382;44.768;17.206;2022-12-11T08:32:13;14.57;;;7.97;;
36351;SDS011;22382;44.768;17.206;2022-12-11T08:34:42;15.15;;;8.40;;
36351;SDS011;22382;44.768;17.206;2022-12-11T08:37:09;14.43;;;8.15;;
36351;SDS011;22382;44.768;17.206;2022-12-11T08:39:36;13.90;;;8.05;;
36351;SDS011;22382;44.768;17.206;2022-12-11T08:42:03;14.98;;;8.38;;
36351;SDS011;22382;44.768;17.206;2022-12-11T08:44:30;18.17;;;10.68;;
36351;SDS011;22382;44.768;17.206;2022-12-11T08:46:57;18.83;;;10.88;;
36351;SDS011;22382;44.768;17.206;2022-12-11T08:49:24;20.10;;;11.40;;
36351;SDS011;22382;44.768;17.206;2022-12-11T08:51:59;16.40;;;10.63;;
36351;SDS011;22382;44.768;17.206;2022-12-11T08:54:26;16.80;;;10.23;;
36351;SDS011;22382;44.768;17.206;2022-12-11T08:56:53;16.33;;;10.20;;
36351;SDS011;22382;44.768;17.206;2022-12-11T08:59:23;16.30;;;9.38;;
36351;SDS011;22382;44.768;17.206;2022-12-11T09:01:51;17.48;;;10.32;;
36351;SDS011;22382;44.768;17.206;2022-12-11T09:04:19;16.40;;;9.77;;
36351;SDS011;22382;44.768;17.206;2022-12-11T09:06:46;14.27;;;8.48;;
36351;SDS011;22382;44.768;17.206;2022-12-11T09:09:13;10.88;;;7.03;;
36351;SDS011;22382;44.768;17.206;2022-12-11T09:11:40;24.33;;;12.90;;
36351;SDS011;22382;44.768;17.206;2022-12-11T09:14:08;17.85;;;10.77;;
36351;SDS011;22382;44.768;17.206;2022-12-11T09:16:37;15.07;;;9.15;;
36351;SDS011;22382;44.768;17.206;2022-12-11T09:19:06;17.50;;;9.00;;
36351;SDS011;22382;44.768;17.206;2022-12-11T09:21:36;13.93;;;7.53;;
36351;SDS011;22382;44.768;17.206;2022-12-11T09:24:03;11.32;;;7.25;;
36351;SDS011;22382;44.768;17.206;2022-12-11T09:26:31;15.63;;;8.95;;
36351;SDS011;22382;44.768;17.206;2022-12-11T09:28:58;15.85;;;9.10;;
36351;SDS011;22382;44.768;17.206;2022-12-11T09:31:29;14.48;;;8.75;;
36351;SDS011;22382;44.768;17.206;2022-12-11T09:34:04;13.10;;;8.25;;
36351;SDS011;22382;44.768;17.206;2022-12-11T09:36:33;16.15;;;9.25;;
36351;SDS011;22382;44.768;17.206;2022-12-11T09:39:04;12.70;;;7.30;;
36351;SDS011;22382;44.768;17.206;2022-12-11T09:46:58;10.63;;;6.93;;
36351;SDS011;22382;44.768;17.206;2022-12-11T09:52:09;11.55;;;7.00;;
36351;SDS011;22382;44.768;17.206;2022-12-11T09:54:48;8.38;;;5.80;;
36351;SDS011;22382;44.768;17.206;2022-12-11T10:08:05;7.63;;;4.63;;
36351;SDS011;22382;44.768;17.206;2022-12-11T10:10:43;8.55;;;4.93;;
36351;SDS011;22382;44.768;17.206;2022-12-11T10:21:06;12.55;;;5.80;;
36351;SDS011;22382;44.768;17.206;2022-12-11T10:23:42;10.48;;;4.78;;
36351;SDS011;22382;44.768;17.206;2022-12-11T10:26:20;8.68;;;5.35;;
36351;SDS011;22382;44.768;17.206;2022-12-11T10:28:48;9.27;;;5.35;;
36351;SDS011;22382;44.768;17.206;2022-12-11T10:31:16;8.68;;;5.40;;
36351;SDS011;22382;44.768;17.206;2022-12-11T10:34:33;7.88;;;4.18;;
36351;SDS011;22382;44.768;17.206;2022-12-11T10:37:05;6.13;;;3.55;;
36351;SDS011;22382;44.768;17.206;2022-12-11T10:39:32;12.05;;;6.10;;
36351;SDS011;22382;44.768;17.206;2022-12-11T10:41:59;13.02;;;6.63;;
36351;SDS011;22382;44.768;17.206;2022-12-11T10:44:36;11.15;;;6.82;;
36351;SDS011;22382;44.768;17.206;2022-12-11T10:47:04;9.23;;;5.38;;
36351;SDS011;22382;44.768;17.206;2022-12-11T10:49:38;8.98;;;5.03;;
36351;SDS011;22382;44.768;17.206;2022-12-11T10:52:20;40.17;;;23.13;;
36351;SDS011;22382;44.768;17.206;2022-12-11T10:55:00;28.27;;;14.65;;
36351;SDS011;22382;44.768;17.206;2022-12-11T10:57:36;12.35;;;6.63;;
36351;SDS011;22382;44.768;17.206;2022-12-11T11:00:05;13.63;;;7.55;;
36351;SDS011;22382;44.768;17.206;2022-12-11T11:02:51;10.57;;;6.75;;
36351;SDS011;22382;44.768;17.206;2022-12-11T11:05:32;14.77;;;8.70;;
36351;SDS011;22382;44.768;17.206;2022-12-11T11:08:22;11.35;;;6.53;;
36351;SDS011;22382;44.768;17.206;2022-12-11T11:10:49;12.52;;;6.47;;
36351;SDS011;22382;44.768;17.206;2022-12-11T11:13:19;8.57;;;5.00;;
36351;SDS011;22382;44.768;17.206;2022-12-11T11:15:57;10.98;;;5.72;;
36351;SDS011;22382;44.768;17.206;2022-12-11T11:18:27;13.13;;;7.35;;
36351;SDS011;22382;44.768;17.206;2022-12-11T11:20:56;10.32;;;6.57;;
36351;SDS011;22382;44.768;17.206;2022-12-11T11:23:24;11.80;;;6.80;;
36351;SDS011;22382;44.768;17.206;2022-12-11T11:28:24;9.27;;;6.30;;
36351;SDS011;22382;44.768;17.206;2022-12-11T11:30:56;10.40;;;6.22;;
36351;SDS011;22382;44.768;17.206;2022-12-11T11:33:28;7.93;;;5.10;;
36351;SDS011;22382;44.768;17.206;2022-12-11T11:35:57;10.40;;;6.45;;
36351;SDS011;22382;44.768;17.206;2022-12-11T11:38:34;9.52;;;6.30;;
36351;SDS011;22382;44.768;17.206;2022-12-11T11:41:16;10.93;;;6.47;;
36351;SDS011;22382;44.768;17.206;2022-12-11T11:44:07;11.60;;;5.75;;
36351;SDS011;22382;44.768;17.206;2022-12-11T11:46:39;6.75;;;4.43;;
36351;SDS011;22382;44.768;17.206;2022-12-11T11:52:04;10.98;;;6.00;;
36351;SDS011;22382;44.768;17.206;2022-12-11T11:54:49;7.65;;;3.95;;
36351;SDS011;22382;44.768;17.206;2022-12-11T11:58:06;8.65;;;4.50;;
36351;SDS011;22382;44.768;17.206;2022-12-11T12:00:25;9.07;;;4.38;;
36351;SDS011;22382;44.768;17.206;2022-12-11T12:03:01;5.93;;;3.35;;
36351;SDS011;22382;44.768;17.206;2022-12-11T12:05:39;6.50;;;4.00;;
36351;SDS011;22382;44.768;17.206;2022-12-11T12:08:12;7.43;;;4.80;;
36351;SDS011;22382;44.768;17.206;2022-12-11T12:10:49;9.05;;;5.07;;
36351;SDS011;22382;44.768;17.206;2022-12-11T12:23:13;10.85;;;5.88;;
36351;SDS011;22382;44.768;17.206;2022-12-11T12:28:37;9.75;;;6.13;;
36351;SDS011;22382;44.768;17.206;2022-12-11T12:32:08;10.90;;;5.50;;
36351;SDS011;22382;44.768;17.206;2022-12-11T12:37:17;8.63;;;5.63;;
36351;SDS011;22382;44.768;17.206;2022-12-11T12:40:06;7.40;;;4.83;;
36351;SDS011;22382;44.768;17.206;2022-12-11T12:47:42;8.35;;;5.28;;
36351;SDS011;22382;44.768;17.206;2022-12-11T12:50:23;10.35;;;5.90;;
36351;SDS011;22382;44.768;17.206;2022-12-11T12:52:54;10.63;;;6.20;;
36351;SDS011;22382;44.768;17.206;2022-12-11T12:57:56;7.50;;;4.70;;
36351;SDS011;22382;44.768;17.206;2022-12-11T13:02:53;8.70;;;4.70;;
36351;SDS011;22382;44.768;17.206;2022-12-11T13:05:28;7.72;;;4.80;;
36351;SDS011;22382;44.768;17.206;2022-12-11T13:08:02;6.43;;;4.07;;
36351;SDS011;22382;44.768;17.206;2022-12-11T13:10:32;8.03;;;4.77;;
36351;SDS011;22382;44.768;17.206;2022-12-11T13:13:01;9.90;;;5.13;;
36351;SDS011;22382;44.768;17.206;2022-12-11T13:15:35;7.90;;;4.93;;
36351;SDS011;22382;44.768;17.206;2022-12-11T13:21:03;7.80;;;4.47;;
36351;SDS011;22382;44.768;17.206;2022-12-11T13:24:13;7.72;;;4.55;;
36351;SDS011;22382;44.768;17.206;2022-12-11T13:26:42;8.32;;;4.97;;
36351;SDS011;22382;44.768;17.206;2022-12-11T13:29:33;8.07;;;4.78;;
36351;SDS011;22382;44.768;17.206;2022-12-11T13:34:36;10.35;;;5.93;;
36351;SDS011;22382;44.768;17.206;2022-12-11T13:37:20;7.38;;;4.72;;
36351;SDS011;22382;44.768;17.206;2022-12-11T13:39:57;8.75;;;4.97;;
36351;SDS011;22382;44.768;17.206;2022-12-11T13:45:00;8.75;;;5.63;;
36351;SDS011;22382;44.768;17.206;2022-12-11T13:47:28;8.68;;;5.20;;
36351;SDS011;22382;44.768;17.206;2022-12-11T13:50:01;10.50;;;6.50;;
36351;SDS011;22382;44.768;17.206;2022-12-11T13:52:54;10.70;;;6.55;;
36351;SDS011;22382;44.768;17.206;2022-12-11T13:55:24;12.82;;;7.70;;
36351;SDS011;22382;44.768;17.206;2022-12-11T13:57:53;9.75;;;5.90;;
36351;SDS011;22382;44.768;17.206;2022-12-11T14:00:21;10.18;;;5.45;;
36351;SDS011;22382;44.768;17.206;2022-12-11T14:02:53;7.97;;;5.07;;
36351;SDS011;22382;44.768;17.206;2022-12-11T14:05:24;12.63;;;7.78;;
36351;SDS011;22382;44.768;17.206;2022-12-11T14:07:52;10.40;;;6.22;;
36351;SDS011;22382;44.768;17.206;2022-12-11T14:10:25;11.65;;;6.38;;
36351;SDS011;22382;44.768;17.206;2022-12-11T14:13:00;8.98;;;5.63;;
36351;SDS011;22382;44.768;17.206;2022-12-11T14:15:30;11.40;;;6.72;;
36351;SDS011;22382;44.768;17.206;2022-12-11T14:18:00;13.10;;;7.13;;
36351;SDS011;22382;44.768;17.206;2022-12-11T14:20:29;12.23;;;6.80;;
36351;SDS011;22382;44.768;17.206;2022-12-11T14:25:56;17.75;;;8.52;;
36351;SDS011;22382;44.768;17.206;2022-12-11T14:28:26;12.70;;;7.03;;
36351;SDS011;22382;44.768;17.206;2022-12-11T14:30:56;11.32;;;7.22;;
36351;SDS011;22382;44.768;17.206;2022-12-11T14:33:31;11.20;;;7.25;;
36351;SDS011;22382;44.768;17.206;2022-12-11T14:36:02;13.93;;;7.03;;
36351;SDS011;22382;44.768;17.206;2022-12-11T14:41:05;13.70;;;8.20;;
36351;SDS011;22382;44.768;17.206;2022-12-11T14:43:43;17.23;;;9.77;;
36351;SDS011;22382;44.768;17.206;2022-12-11T14:46:18;18.33;;;8.80;;
36351;SDS011;22382;44.768;17.206;2022-12-11T14:48:52;13.95;;;8.70;;
36351;SDS011;22382;44.768;17.206;2022-12-11T14:51:27;16.02;;;9.15;;
36351;SDS011;22382;44.768;17.206;2022-12-11T14:54:00;16.38;;;9.00;;
36351;SDS011;22382;44.768;17.206;2022-12-11T14:56:28;15.02;;;8.77;;
36351;SDS011;22382;44.768;17.206;2022-12-11T14:58:57;15.88;;;9.98;;
36351;SDS011;22382;44.768;17.206;2022-12-11T15:01:29;19.65;;;10.88;;
36351;SDS011;22382;44.768;17.206;2022-12-11T15:04:02;21.27;;;12.20;;
36351;SDS011;22382;44.768;17.206;2022-12-11T15:06:45;21.92;;;12.93;;
36351;SDS011;22382;44.768;17.206;2022-12-11T15:11:50;20.27;;;11.55;;
36351;SDS011;22382;44.768;17.206;2022-12-11T15:14:20;18.85;;;10.43;;
36351;SDS011;22382;44.768;17.206;2022-12-11T15:16:49;19.70;;;10.80;;
36351;SDS011;22382;44.768;17.206;2022-12-11T15:19:27;18.58;;;10.55;;
36351;SDS011;22382;44.768;17.206;2022-12-11T15:22:00;17.10;;;10.15;;
36351;SDS011;22382;44.768;17.206;2022-12-11T15:24:41;13.95;;;8.45;;
36351;SDS011;22382;44.768;17.206;2022-12-11T15:27:19;14.50;;;8.52;;
36351;SDS011;22382;44.768;17.206;2022-12-11T15:29:52;15.05;;;8.98;;
36351;SDS011;22382;44.768;17.206;2022-12-11T15:32:22;13.65;;;7.13;;
36351;SDS011;22382;44.768;17.206;2022-12-11T15:34:51;13.05;;;7.43;;
36351;SDS011;22382;44.768;17.206;2022-12-11T15:37:28;12.80;;;7.10;;
36351;SDS011;22382;44.768;17.206;2022-12-11T15:39:57;11.45;;;7.10;;
36351;SDS011;22382;44.768;17.206;2022-12-11T15:42:26;14.05;;;8.02;;
36351;SDS011;22382;44.768;17.206;2022-12-11T15:45:00;17.48;;;8.73;;
36351;SDS011;22382;44.768;17.206;2022-12-11T15:47:30;16.67;;;8.27;;
36351;SDS011;22382;44.768;17.206;2022-12-11T15:50:06;12.88;;;7.97;;
36351;SDS011;22382;44.768;17.206;2022-12-11T15:52:40;21.50;;;9.53;;
36351;SDS011;22382;44.768;17.206;2022-12-11T15:55:07;19.00;;;10.20;;
36351;SDS011;22382;44.768;17.206;2022-12-11T15:57:36;20.08;;;10.65;;
36351;SDS011;22382;44.768;17.206;2022-12-11T16:00:03;13.13;;;7.70;;
36351;SDS011;22382;44.768;17.206;2022-12-11T16:02:33;15.70;;;7.80;;
36351;SDS011;22382;44.768;17.206;2022-12-11T16:05:00;12.18;;;6.80;;
36351;SDS011;22382;44.768;17.206;2022-12-11T16:07:27;11.32;;;6.90;;
36351;SDS011;22382;44.768;17.206;2022-12-11T16:09:55;13.38;;;7.15;;
36351;SDS011;22382;44.768;17.206;2022-12-11T16:12:22;12.07;;;7.20;;
36351;SDS011;22382;44.768;17.206;2022-12-11T16:15:01;12.38;;;6.75;;
36351;SDS011;22382;44.768;17.206;2022-12-11T16:17:36;11.40;;;6.95;;
36351;SDS011;22382;44.768;17.206;2022-12-11T16:20:04;13.35;;;7.90;;
36351;SDS011;22382;44.768;17.206;2022-12-11T16:22:31;19.73;;;9.13;;